Time;durP1;ratioP1;P1;durP2;ratioP2;P2;SDS_P1;SDS_P2;PMS_P1;PMS_P2;Temp;Humidity;BMP_temperature;BMP_pressure;BME280_temperature;BME280_humidity;BME280_pressure;Samples;Min_cycle;Max_cycle;Signal;HPM_P1;HPM_P2
2022/10/22 00:01:53;;;;;;;8.52;3.20;;;;;;;14.07;100.00;100717.34;5092864;28;20032;-67
2022/10/22 00:04:18;;;;;;;9.05;3.53;;;;;;;14.05;100.00;100718.22;5085623;28;20111;-66
2022/10/22 00:06:43;;;;;;;14.75;3.85;;;;;;;14.03;100.00;100718.25;5088204;28;20028;-66
2022/10/22 00:09:11;;;;;;;7.07;3.80;;;;;;;14.02;100.00;100715.59;5078051;28;20024;-67
2022/10/22 00:11:36;;;;;;;8.75;2.92;;;;;;;14.00;100.00;100707.66;5082677;28;20024;-67
2022/10/22 00:14:02;;;;;;;9.60;3.75;;;;;;;13.99;100.00;100717.34;5086090;28;20025;-67
2022/10/22 00:16:28;;;;;;;8.93;3.78;;;;;;;13.98;100.00;100715.59;5089148;28;20031;-67
2022/10/22 00:18:53;;;;;;;11.85;3.50;;;;;;;13.97;100.00;100718.22;5083328;28;20024;-67
2022/10/22 00:21:18;;;;;;;8.60;3.72;;;;;;;13.95;100.00;100720.00;5082509;28;20103;-67
2022/10/22 00:23:44;;;;;;;19.55;7.80;;;;;;;13.94;100.00;100719.09;5093426;28;20100;-67
2022/10/22 00:26:10;;;;;;;7.97;3.42;;;;;;;13.94;100.00;100721.75;5079720;28;20028;-66
2022/10/22 00:28:36;;;;;;;9.15;4.00;;;;;;;13.89;100.00;100725.28;5084735;28;20021;-67
2022/10/22 00:31:01;;;;;;;9.35;3.50;;;;;;;13.88;100.00;100736.75;5084384;28;20360;-67
2022/10/22 00:33:28;;;;;;;10.45;3.80;;;;;;;13.87;100.00;100737.63;5093989;28;20107;-67
2022/10/22 00:35:54;;;;;;;10.60;3.63;;;;;;;13.88;100.00;100734.97;5093853;28;20036;-66
2022/10/22 00:38:19;;;;;;;10.32;4.18;;;;;;;13.91;100.00;100739.41;5091156;28;20031;-65
2022/10/22 00:40:45;;;;;;;10.68;3.50;;;;;;;13.94;100.00;100742.03;5088238;28;20028;-65
2022/10/22 00:43:15;;;;;;;8.75;3.55;;;;;;;13.96;100.00;100738.50;5084512;28;20036;-67
2022/10/22 00:45:41;;;;;;;12.88;4.32;;;;;;;13.98;100.00;100735.88;5089061;28;20027;-67
2022/10/22 00:48:10;;;;;;;7.22;3.40;;;;;;;14.03;100.00;100746.47;5093659;28;20400;-67
2022/10/22 00:50:44;;;;;;;10.48;3.33;;;;;;;14.06;100.00;100741.16;5076491;28;20028;-66
2022/10/22 00:53:13;;;;;;;19.65;4.85;;;;;;;14.05;100.00;100748.22;5094940;28;20051;-67
2022/10/22 00:55:42;;;;;;;8.63;3.03;;;;;;;14.06;100.00;100739.41;5094785;28;20020;-67
2022/10/22 00:58:08;;;;;;;9.35;3.75;;;;;;;14.07;100.00;100741.16;5084196;28;20425;-66
2022/10/22 01:00:34;;;;;;;9.73;3.47;;;;;;;14.08;100.00;100744.69;5091915;28;20036;-66
2022/10/22 01:03:00;;;;;;;5.30;3.03;;;;;;;14.10;100.00;100738.50;5082348;28;20387;-66
2022/10/22 01:05:29;;;;;;;8.00;3.80;;;;;;;14.11;100.00;100748.22;5095717;28;20059;-67
2022/10/22 01:07:54;;;;;;;12.15;3.22;;;;;;;14.12;100.00;100738.50;5078164;28;20040;-67
2022/10/22 01:10:28;;;;;;;6.60;2.90;;;;;;;14.11;100.00;100742.94;5087932;28;20020;-67
2022/10/22 01:13:09;;;;;;;10.77;2.88;;;;;;;14.14;100.00;100742.94;5092939;28;20024;-66
2022/10/22 01:15:45;;;;;;;9.18;3.00;;;;;;;14.15;100.00;100750.00;5094083;28;20081;-67
2022/10/22 01:18:28;;;;;;;8.38;3.47;;;;;;;14.17;100.00;100755.28;5091292;28;20477;-66
2022/10/22 01:21:19;;;;;;;6.95;2.95;;;;;;;14.19;100.00;100761.47;5094055;28;20036;-67
2022/10/22 01:23:51;;;;;;;8.65;3.15;;;;;;;14.22;100.00;100761.47;5091429;28;20486;-67
2022/10/22 01:26:35;;;;;;;8.10;3.25;;;;;;;14.21;100.00;100759.69;5083535;28;20036;-66
2022/10/22 01:29:10;;;;;;;10.48;3.03;;;;;;;14.18;100.00;100759.69;5085381;28;20043;-67
2022/10/22 01:31:43;;;;;;;11.63;3.75;;;;;;;14.22;100.00;100761.47;5082661;28;20023;-67
2022/10/22 01:34:13;;;;;;;7.18;2.83;;;;;;;14.28;100.00;100755.28;5092947;28;20032;-67
2022/10/22 01:36:39;;;;;;;10.20;3.13;;;;;;;14.32;100.00;100759.69;5077244;28;20025;-66
2022/10/22 01:39:07;;;;;;;8.20;2.80;;;;;;;14.33;100.00;100757.03;5074825;28;20032;-66
2022/10/22 01:41:34;;;;;;;6.72;2.63;;;;;;;14.35;100.00;100754.38;5084204;28;20017;-66
2022/10/22 01:43:59;;;;;;;9.38;2.55;;;;;;;14.35;100.00;100751.75;5093388;28;20032;-66
2022/10/22 01:46:27;;;;;;;10.00;2.95;;;;;;;14.38;100.00;100757.06;5088411;28;20494;-66
2022/10/22 01:48:58;;;;;;;13.18;2.50;;;;;;;14.40;100.00;100754.41;5085592;28;20133;-67
2022/10/22 01:51:40;;;;;;;8.23;3.03;;;;;;;14.37;100.00;100750.00;5082202;28;20024;-67
2022/10/22 01:54:25;;;;;;;5.82;2.47;;;;;;;14.37;100.00;100747.34;5093729;28;20032;-67
2022/10/22 01:57:04;;;;;;;8.13;3.17;;;;;;;14.40;100.00;100747.31;5069639;28;20044;-67
2022/10/22 01:59:51;;;;;;;7.25;2.90;;;;;;;14.39;100.00;100748.25;5093362;28;20032;-66
2022/10/22 02:02:23;;;;;;;10.43;2.55;;;;;;;14.37;100.00;100744.69;5091681;28;20536;-67
2022/10/22 02:04:56;;;;;;;13.15;3.10;;;;;;;14.34;100.00;100747.34;5077518;28;20449;-67
2022/10/22 02:07:27;;;;;;;11.80;3.03;;;;;;;14.37;100.00;100749.13;5084912;28;20059;-67
2022/10/22 02:09:54;;;;;;;5.85;2.25;;;;;;;14.38;100.00;100748.22;5077941;28;20036;-67
2022/10/22 02:12:23;;;;;;;10.38;2.90;;;;;;;14.34;100.00;100750.00;5091611;28;20031;-67
2022/10/22 02:14:50;;;;;;;8.10;2.53;;;;;;;14.34;100.00;100747.34;5093021;28;20055;-66
2022/10/22 02:17:20;;;;;;;7.30;2.10;;;;;;;14.33;100.00;100753.53;5081981;28;20012;-66
2022/10/22 02:19:52;;;;;;;8.75;2.53;;;;;;;14.33;100.00;100753.53;5086377;28;20039;-66
2022/10/22 02:22:18;;;;;;;15.75;3.17;;;;;;;14.34;100.00;100742.06;5092624;28;20578;-66
2022/10/22 02:24:44;;;;;;;9.30;2.53;;;;;;;14.37;100.00;100743.81;5093347;28;20020;-66
2022/10/22 02:27:24;;;;;;;10.82;2.97;;;;;;;14.38;100.00;100745.56;5079502;28;20031;-65
2022/10/22 02:30:11;;;;;;;8.55;2.38;;;;;;;14.38;100.00;100751.75;5084151;28;20032;-66
2022/10/22 02:33:08;;;;;;;14.95;2.75;;;;;;;14.37;100.00;100755.28;5090450;28;20416;-66
2022/10/22 02:35:35;;;;;;;9.07;2.40;;;;;;;14.40;100.00;100755.28;5088405;28;20024;-67
2022/10/22 02:38:02;;;;;;;8.57;2.45;;;;;;;14.41;100.00;100746.44;5086320;28;20017;-67
2022/10/22 02:40:30;;;;;;;10.95;2.17;;;;;;;14.41;100.00;100750.88;5085447;28;20036;-66
2022/10/22 02:42:55;;;;;;;9.52;2.53;;;;;;;14.43;100.00;100750.00;5087603;28;20371;-67
2022/10/22 02:45:21;;;;;;;17.33;2.60;;;;;;;14.45;100.00;100742.91;5074858;28;20024;-67
2022/10/22 02:47:46;;;;;;;8.15;2.03;;;;;;;14.45;100.00;100748.22;5080060;28;20111;-67
2022/10/22 02:50:12;;;;;;;7.95;1.80;;;;;;;14.48;100.00;100745.56;5092879;28;20035;-67
2022/10/22 02:52:37;;;;;;;8.27;2.33;;;;;;;14.50;100.00;100749.09;5087922;28;20028;-66
2022/10/22 02:55:04;;;;;;;10.10;2.40;;;;;;;14.52;100.00;100750.88;5091336;28;20158;-67
2022/10/22 02:57:29;;;;;;;8.15;2.08;;;;;;;14.50;100.00;100754.41;5090504;28;20036;-67
2022/10/22 02:59:54;;;;;;;6.72;2.05;;;;;;;14.52;100.00;100749.09;5087632;28;20038;-67
2022/10/22 03:02:20;;;;;;;6.45;2.50;;;;;;;14.50;100.00;100751.75;5087644;28;20038;-67
2022/10/22 03:04:45;;;;;;;16.13;2.58;;;;;;;14.46;100.00;100746.44;5084394;28;20547;-66
2022/10/22 03:07:10;;;;;;;13.80;2.85;;;;;;;14.45;100.00;100750.00;5085630;28;20472;-67
2022/10/22 03:09:36;;;;;;;13.40;2.17;;;;;;;14.47;100.00;100751.75;5091382;28;20039;-67
2022/10/22 03:12:01;;;;;;;9.48;1.83;;;;;;;14.40;100.00;100760.56;5090376;28;20028;-67
2022/10/22 03:14:26;;;;;;;8.68;2.00;;;;;;;14.44;100.00;100751.75;5075442;28;20467;-67
2022/10/22 03:16:52;;;;;;;10.68;2.13;;;;;;;14.41;100.00;100762.34;5090977;28;20024;-67
2022/10/22 03:19:17;;;;;;;11.55;2.25;;;;;;;14.42;100.00;100753.53;5085614;28;20108;-66
2022/10/22 03:21:55;;;;;;;9.98;2.33;;;;;;;14.40;100.00;100760.56;5084777;28;20111;-66
2022/10/22 03:24:24;;;;;;;10.18;2.08;;;;;;;14.39;100.00;100753.53;5090995;28;20024;-66
2022/10/22 03:26:51;;;;;;;7.45;2.88;;;;;;;14.36;100.00;100758.81;5089557;28;20107;-67
2022/10/22 03:29:16;;;;;;;7.28;2.33;;;;;;;14.33;100.00;100753.53;5077974;28;20065;-66
2022/10/22 03:31:42;;;;;;;8.85;2.53;;;;;;;14.34;100.00;100755.28;5091790;28;20103;-67
2022/10/22 03:34:07;;;;;;;10.00;2.03;;;;;;;14.32;100.00;100759.69;5090360;28;20577;-66
2022/10/22 03:36:33;;;;;;;12.65;2.40;;;;;;;14.33;100.00;100761.47;5087132;28;20028;-66
2022/10/22 03:39:00;;;;;;;13.38;2.42;;;;;;;14.37;100.00;100757.94;5075433;28;20024;-67
2022/10/22 03:41:25;;;;;;;13.32;2.63;;;;;;;14.39;100.00;100760.56;5091154;28;20482;-66
2022/10/22 03:43:52;;;;;;;12.80;3.47;;;;;;;14.38;100.00;100759.69;5090389;28;20027;-67
2022/10/22 03:46:18;;;;;;;12.60;3.47;;;;;;;14.42;100.00;100764.09;5084773;28;20360;-67
2022/10/22 03:48:44;;;;;;;7.47;1.90;;;;;;;14.43;100.00;100771.19;5085834;28;20124;-65
2022/10/22 03:51:09;;;;;;;16.73;2.40;;;;;;;14.47;100.00;100767.63;5089074;28;20051;-66
2022/10/22 03:53:35;;;;;;;8.25;2.45;;;;;;;14.46;100.00;100775.56;5087428;28;20029;-67
2022/10/22 03:56:01;;;;;;;13.55;3.42;;;;;;;14.52;100.00;100774.69;5075059;28;20491;-67
2022/10/22 03:58:26;;;;;;;9.50;2.08;;;;;;;14.54;100.00;100773.81;5092009;28;20075;-67
2022/10/22 04:00:52;;;;;;;10.38;2.20;;;;;;;14.51;100.00;100779.09;5078208;28;20032;-66
2022/10/22 04:03:17;;;;;;;8.80;2.35;;;;;;;14.54;100.00;100783.50;5084824;28;20033;-66
2022/10/22 04:05:42;;;;;;;6.40;1.75;;;;;;;14.54;100.00;100779.13;5083044;28;20047;-67
2022/10/22 04:08:08;;;;;;;10.80;2.55;;;;;;;14.51;100.00;100784.38;5081162;28;20106;-66
2022/10/22 04:10:34;;;;;;;6.13;1.98;;;;;;;14.56;100.00;100776.47;5087116;28;20051;-66
2022/10/22 04:13:00;;;;;;;13.55;2.40;;;;;;;14.55;100.00;100774.69;5091220;28;20035;-67
2022/10/22 04:15:27;;;;;;;10.25;2.28;;;;;;;14.49;100.00;100776.44;5096488;28;20347;-67
2022/10/22 04:17:52;;;;;;;13.25;2.25;;;;;;;14.54;100.00;100784.41;5081471;28;20051;-66
2022/10/22 04:20:18;;;;;;;6.70;2.15;;;;;;;14.56;100.00;100784.41;5086811;28;20109;-66
2022/10/22 04:22:43;;;;;;;7.78;2.15;;;;;;;14.54;100.00;100787.06;5088639;28;20446;-66
2022/10/22 04:25:09;;;;;;;11.32;1.77;;;;;;;14.55;100.00;100785.28;5092430;28;20024;-67
2022/10/22 04:27:34;;;;;;;8.35;2.17;;;;;;;14.56;100.00;100795.00;5095136;28;20036;-65
2022/10/22 04:29:59;;;;;;;6.85;2.20;;;;;;;14.55;100.00;100796.75;5094006;28;20024;-66
2022/10/22 04:32:26;;;;;;;6.70;2.00;;;;;;;14.55;100.00;100793.22;5094816;28;20024;-66
2022/10/22 04:34:51;;;;;;;8.15;2.58;;;;;;;14.56;100.00;100793.22;5093482;28;20024;-66
2022/10/22 04:37:17;;;;;;;6.88;2.03;;;;;;;14.55;100.00;100786.16;5090498;28;20032;-66
2022/10/22 04:39:42;;;;;;;16.23;2.35;;;;;;;14.58;100.00;100802.06;5085755;28;20023;-66
2022/10/22 04:42:07;;;;;;;12.00;2.45;;;;;;;14.61;100.00;100801.16;5090037;28;20039;-67
2022/10/22 04:44:33;;;;;;;9.20;1.80;;;;;;;14.60;100.00;100796.75;5075394;28;20463;-67
2022/10/22 04:46:58;;;;;;;9.73;2.20;;;;;;;14.56;100.00;100801.16;5088770;28;20111;-66
2022/10/22 04:49:23;;;;;;;7.40;2.15;;;;;;;14.47;100.00;100802.06;5079613;28;20103;-67
2022/10/22 04:51:49;;;;;;;9.93;2.60;;;;;;;14.46;100.00;100810.88;5084192;28;20060;-67
2022/10/22 04:54:14;;;;;;;10.15;2.45;;;;;;;14.41;100.00;100815.28;5087771;28;20517;-66
2022/10/22 04:56:39;;;;;;;8.52;2.15;;;;;;;14.43;100.00;100810.88;5082491;28;20047;-66
2022/10/22 04:59:06;;;;;;;8.70;2.03;;;;;;;14.37;100.00;100820.59;5088427;28;20384;-66
2022/10/22 05:01:37;;;;;;;10.40;2.05;;;;;;;14.32;100.00;100815.28;5078473;28;20028;-67
2022/10/22 05:04:04;;;;;;;8.50;1.98;;;;;;;14.30;100.00;100822.34;5090338;28;20028;-67
2022/10/22 05:06:31;;;;;;;9.38;2.28;;;;;;;14.25;100.00;100824.09;5092954;28;20024;-67
2022/10/22 05:08:59;;;;;;;10.23;2.00;;;;;;;14.24;100.00;100824.97;5090625;28;20126;-66
2022/10/22 05:11:27;;;;;;;10.18;2.05;;;;;;;14.23;100.00;100831.13;5078613;28;20028;-67
2022/10/22 05:13:55;;;;;;;7.22;2.83;;;;;;;14.23;100.00;100831.13;5083798;28;20036;-65
2022/10/22 05:16:21;;;;;;;9.65;2.25;;;;;;;14.19;100.00;100830.28;5085722;28;20392;-66
2022/10/22 05:18:46;;;;;;;12.05;2.42;;;;;;;14.16;100.00;100831.16;5094122;28;20032;-67
2022/10/22 05:21:17;;;;;;;10.90;2.70;;;;;;;14.15;100.00;100828.50;5075990;28;20037;-67
2022/10/22 05:23:44;;;;;;;10.50;2.88;;;;;;;14.13;100.00;100828.50;5080778;28;20510;-66
2022/10/22 05:26:11;;;;;;;8.48;2.08;;;;;;;14.14;100.00;100835.53;5080274;28;20060;-66
2022/10/22 05:28:37;;;;;;;6.85;1.80;;;;;;;14.12;100.00;100824.09;5086050;28;20094;-66
2022/10/22 05:31:03;;;;;;;9.60;2.40;;;;;;;14.12;100.00;100834.66;5074765;28;20032;-67
2022/10/22 05:33:30;;;;;;;12.93;2.92;;;;;;;14.13;100.00;100841.75;5093891;28;20375;-66
2022/10/22 05:35:56;;;;;;;8.75;2.30;;;;;;;14.12;100.00;100839.97;5093221;28;20012;-65
2022/10/22 05:38:22;;;;;;;6.00;1.80;;;;;;;14.16;100.00;100833.78;5092260;28;20081;-66
2022/10/22 05:40:47;;;;;;;9.57;3.78;;;;;;;14.13;100.00;100833.81;5085520;28;20032;-67
2022/10/22 05:43:13;;;;;;;8.48;2.78;;;;;;;14.19;100.00;100826.72;5093908;28;20035;-65
2022/10/22 05:45:40;;;;;;;11.40;2.67;;;;;;;14.21;100.00;100840.84;5094771;28;20028;-66
2022/10/22 05:48:07;;;;;;;10.48;2.65;;;;;;;14.19;100.00;100845.25;5091580;28;20460;-66
2022/10/22 05:50:35;;;;;;;10.18;2.67;;;;;;;14.16;100.00;100847.03;5094019;28;20135;-67
2022/10/22 05:53:01;;;;;;;13.38;2.92;;;;;;;14.21;100.00;100849.66;5093191;28;20056;-66
2022/10/22 05:55:26;;;;;;;9.63;1.80;;;;;;;14.19;100.00;100848.81;5092348;28;20053;-66
2022/10/22 05:57:51;;;;;;;13.05;2.72;;;;;;;14.16;100.00;100849.69;5093897;28;20094;-66
2022/10/22 06:00:17;;;;;;;15.27;2.25;;;;;;;14.09;100.00;100861.09;5084897;28;20567;-66
2022/10/22 06:02:42;;;;;;;13.82;2.60;;;;;;;14.09;100.00;100861.09;5088529;28;20099;-67
2022/10/22 06:05:07;;;;;;;11.68;2.55;;;;;;;14.16;100.00;100867.28;5093761;28;20023;-66
2022/10/22 06:07:34;;;;;;;8.38;1.88;;;;;;;14.14;100.00;100871.72;5089600;28;20489;-65
2022/10/22 06:09:59;;;;;;;8.55;2.42;;;;;;;14.15;100.00;100871.72;5093497;28;20519;-66
2022/10/22 06:12:25;;;;;;;9.18;1.90;;;;;;;14.15;100.00;100873.50;5093483;28;20024;-66
2022/10/22 06:14:50;;;;;;;11.55;2.08;;;;;;;14.15;100.00;100877.00;5093426;28;20035;-67
2022/10/22 06:17:16;;;;;;;13.77;2.22;;;;;;;14.20;100.00;100876.13;5093612;28;20031;-66
2022/10/22 06:19:41;;;;;;;6.40;2.00;;;;;;;14.22;100.00;100874.38;5087971;28;20029;-66
2022/10/22 06:22:06;;;;;;;10.88;2.17;;;;;;;14.19;100.00;100883.19;5082467;28;20028;-66
2022/10/22 06:24:32;;;;;;;16.33;2.58;;;;;;;14.19;100.00;100882.31;5092678;28;20431;-67
2022/10/22 06:26:57;;;;;;;12.18;2.83;;;;;;;14.23;100.00;100889.38;5089981;28;20032;-67
2022/10/22 06:29:23;;;;;;;13.65;2.58;;;;;;;14.21;100.00;100885.84;5093147;28;20027;-67
2022/10/22 06:31:48;;;;;;;11.93;2.33;;;;;;;14.22;100.00;100891.16;5081826;28;20119;-66
2022/10/22 06:34:14;;;;;;;9.93;2.50;;;;;;;14.24;100.00;100888.50;5089098;28;20028;-67
2022/10/22 06:36:41;;;;;;;9.80;2.47;;;;;;;14.26;100.00;100892.03;5088381;28;20086;-67
2022/10/22 06:39:10;;;;;;;7.90;2.47;;;;;;;14.30;100.00;100896.47;5077397;28;20695;-67
2022/10/22 06:41:36;;;;;;;8.60;1.92;;;;;;;14.30;100.00;100901.75;5087544;28;20021;-67
2022/10/22 06:44:01;;;;;;;13.13;2.33;;;;;;;14.32;100.00;100898.25;5088175;28;20080;-67
2022/10/22 06:46:26;;;;;;;12.93;2.50;;;;;;;14.31;100.00;100904.41;5092508;28;20463;-67
2022/10/22 06:48:57;;;;;;;10.20;2.30;;;;;;;14.35;100.00;100915.84;5083742;28;20031;-66
2022/10/22 06:51:23;;;;;;;13.98;2.13;;;;;;;14.35;100.00;100915.84;5087131;28;20027;-65
2022/10/22 06:53:49;;;;;;;12.60;2.72;;;;;;;14.39;100.00;100916.75;5093341;28;20023;-66
2022/10/22 06:56:18;;;;;;;9.50;1.90;;;;;;;14.44;100.00;100921.19;5090410;28;20032;-66
2022/10/22 06:58:47;;;;;;;15.32;2.75;;;;;;;14.51;100.00;100922.06;5088026;28;20412;-67
2022/10/22 07:01:14;;;;;;;14.75;2.10;;;;;;;14.55;100.00;100933.56;5080295;28;20440;-66
2022/10/22 07:03:40;;;;;;;11.35;1.70;;;;;;;14.58;100.00;100938.84;5082761;28;20024;-66
2022/10/22 07:06:09;;;;;;;8.88;2.50;;;;;;;14.63;100.00;100931.84;5090072;28;20069;-67
2022/10/22 07:08:35;;;;;;;14.73;2.42;;;;;;;14.62;100.00;100940.63;5082510;28;20032;-67
2022/10/22 07:11:24;;;;;;;6.25;1.67;;;;;;;14.62;100.00;100943.28;5088418;28;20028;-66
2022/10/22 07:13:52;;;;;;;11.82;1.67;;;;;;;14.63;100.00;100947.72;5086346;28;20535;-66
2022/10/22 07:16:18;;;;;;;13.27;2.70;;;;;;;14.62;100.00;100945.91;5082986;28;20111;-66
2022/10/22 07:18:46;;;;;;;7.60;1.95;;;;;;;14.61;100.00;100949.44;5093684;28;20024;-66
2022/10/22 07:21:13;;;;;;;11.13;2.33;;;;;;;14.59;100.00;100951.22;5086051;28;20031;-66
2022/10/22 07:23:39;;;;;;;12.82;2.20;;;;;;;14.59;100.00;100956.53;5079562;28;20082;-66
2022/10/22 07:26:08;;;;;;;10.18;2.03;;;;;;;14.63;100.00;100963.63;5099075;28;20028;-66
2022/10/22 07:28:36;;;;;;;13.40;2.72;;;;;;;14.61;100.00;100967.97;5101664;28;20036;-66
2022/10/22 07:31:03;;;;;;;11.02;1.98;;;;;;;14.58;100.00;100973.28;5099122;28;20080;-65
2022/10/22 07:33:29;;;;;;;7.53;1.70;;;;;;;14.58;100.00;100984.78;5094374;28;20066;-66
2022/10/22 07:35:59;;;;;;;8.60;1.75;;;;;;;14.65;100.00;100983.06;5090445;28;20036;-65
2022/10/22 07:38:26;;;;;;;9.45;1.55;;;;;;;14.65;100.00;100989.22;5077722;28;20024;-65
2022/10/22 07:40:51;;;;;;;11.73;2.10;;;;;;;14.66;100.00;100991.00;5073816;28;20040;-65
2022/10/22 07:43:17;;;;;;;17.98;2.40;;;;;;;14.64;100.00;101007.78;5092017;28;20066;-67
2022/10/22 07:45:42;;;;;;;9.77;2.08;;;;;;;14.71;100.00;100998.94;5083980;28;20047;-66
2022/10/22 07:48:07;;;;;;;8.40;1.77;;;;;;;14.72;100.00;101000.72;5083783;28;20028;-67
2022/10/22 07:50:33;;;;;;;7.70;1.95;;;;;;;14.77;100.00;101009.56;5083952;28;20017;-66
2022/10/22 07:52:58;;;;;;;11.95;2.28;;;;;;;14.81;100.00;101014.00;5083354;28;20501;-67
2022/10/22 07:55:24;;;;;;;9.07;1.88;;;;;;;14.88;100.00;101012.25;5092968;28;20027;-67
2022/10/22 07:57:52;;;;;;;10.63;1.80;;;;;;;14.97;100.00;101017.53;5091736;28;20032;-67
2022/10/22 08:00:18;;;;;;;7.93;1.85;;;;;;;15.01;100.00;101018.41;5088105;28;20027;-67
2022/10/22 08:02:44;;;;;;;9.30;2.33;;;;;;;14.96;100.00;101021.09;5093612;28;20021;-65
2022/10/22 08:05:09;;;;;;;8.70;1.95;;;;;;;15.00;100.00;101021.94;5080383;28;20367;-66
2022/10/22 08:07:35;;;;;;;13.07;2.42;;;;;;;15.04;100.00;101029.00;5083252;28;20146;-66
2022/10/22 08:10:00;;;;;;;13.85;2.80;;;;;;;15.07;100.00;101031.69;5083946;28;20441;-65
2022/10/22 08:12:25;;;;;;;5.00;2.15;;;;;;;15.09;100.00;101037.88;5083110;28;20024;-67
2022/10/22 08:14:51;;;;;;;17.33;2.63;;;;;;;15.10;100.00;101044.06;5081802;28;20031;-67
2022/10/22 08:17:17;;;;;;;9.88;2.17;;;;;;;15.16;100.00;101044.94;5095014;28;20030;-66
2022/10/22 08:19:43;;;;;;;9.15;2.30;;;;;;;15.12;100.00;101051.09;5092866;28;20028;-67
2022/10/22 08:22:09;;;;;;;11.32;2.30;;;;;;;15.15;100.00;101047.59;5093374;28;20042;-67
2022/10/22 08:24:34;;;;;;;10.57;2.20;;;;;;;15.18;100.00;101051.13;5095436;28;20020;-66
2022/10/22 08:27:00;;;;;;;11.00;1.90;;;;;;;15.23;100.00;101067.03;5099521;28;20070;-67
2022/10/22 08:29:25;;;;;;;9.02;1.95;;;;;;;15.25;100.00;101064.41;5089794;28;20024;-66
2022/10/22 08:31:51;;;;;;;10.10;2.20;;;;;;;15.30;100.00;101058.22;5099050;28;20106;-66
2022/10/22 08:34:17;;;;;;;11.32;2.08;;;;;;;15.36;100.00;101075.88;5089660;28;20024;-66
2022/10/22 08:36:42;;;;;;;12.13;1.80;;;;;;;15.44;100.00;101070.59;5091010;28;20448;-67
2022/10/22 08:39:08;;;;;;;12.27;2.92;;;;;;;15.44;100.00;101066.16;5092419;28;20036;-67
2022/10/22 08:42:11;;;;;;;11.80;1.98;;;;;;;15.50;100.00;101071.47;5090260;28;20050;-66
2022/10/22 08:44:39;;;;;;;10.17;2.07;;;;;;;15.46;100.00;101072.38;5090916;28;20537;-67
2022/10/22 08:47:07;;;;;;;7.18;1.80;;;;;;;15.50;100.00;101076.78;5097317;28;20085;-67
2022/10/22 08:49:37;;;;;;;12.65;1.63;;;;;;;15.58;100.00;101078.53;5083497;28;20024;-68
2022/10/22 08:52:04;;;;;;;14.73;2.72;;;;;;;15.49;100.00;101090.94;5090353;28;20099;-68
2022/10/22 08:54:46;;;;;;;8.18;1.80;;;;;;;15.45;100.00;101096.22;5079217;28;20549;-68
2022/10/22 08:57:32;;;;;;;8.98;1.65;;;;;;;15.54;100.00;101092.69;5076196;28;20033;-68
2022/10/22 09:00:03;;;;;;;10.70;1.52;;;;;;;15.56;100.00;101096.22;5073254;28;20043;-67
2022/10/22 09:03:06;;;;;;;10.52;1.73;;;;;;;15.77;100.00;101101.50;5081031;28;20815;-68
2022/10/22 09:05:52;;;;;;;12.27;1.75;;;;;;;15.97;100.00;101108.63;5086432;28;20119;-69
2022/10/22 09:08:19;;;;;;;15.65;2.13;;;;;;;15.93;100.00;101109.50;5068917;28;20048;-67
2022/10/22 09:10:54;;;;;;;6.00;2.00;;;;;;;15.97;100.00;101108.63;5086032;28;20475;-68
2022/10/22 09:13:22;;;;;;;13.10;2.25;;;;;;;16.02;100.00;101118.34;5083838;28;20472;-69
2022/10/22 09:15:59;;;;;;;11.90;2.28;;;;;;;16.09;100.00;101119.22;5092009;28;20073;-68
2022/10/22 09:18:30;;;;;;;8.40;2.13;;;;;;;16.27;100.00;101125.38;5076595;28;20028;-68
2022/10/22 09:21:22;;;;;;;11.40;2.20;;;;;;;16.35;100.00;101121.78;5084755;28;20483;-68
2022/10/22 09:24:12;;;;;;;11.25;2.38;;;;;;;16.64;100.00;101123.50;5091228;28;20028;-67
2022/10/22 09:26:39;;;;;;;12.57;1.88;;;;;;;16.70;100.00;101133.19;5078322;28;20491;-68
2022/10/22 09:29:06;;;;;;;8.27;1.80;;;;;;;16.65;100.00;101134.97;5092064;28;20051;-67
2022/10/22 09:31:32;;;;;;;9.40;1.48;;;;;;;16.55;100.00;101138.56;5091315;28;20048;-67
2022/10/22 09:34:04;;;;;;;8.00;1.73;;;;;;;16.40;100.00;101137.72;5086690;28;20117;-67
2022/10/22 09:36:30;;;;;;;10.48;1.70;;;;;;;16.42;100.00;101138.59;5082361;28;20028;-67
2022/10/22 09:38:56;;;;;;;13.98;2.58;;;;;;;16.45;100.00;101143.88;5079198;28;20032;-68
2022/10/22 09:41:25;;;;;;;8.48;1.80;;;;;;;16.39;100.00;101141.28;5094372;28;20146;-67
2022/10/22 09:43:50;;;;;;;8.07;2.10;;;;;;;16.52;100.00;101145.66;5087951;28;20081;-67
2022/10/22 09:46:19;;;;;;;10.90;1.60;;;;;;;16.72;100.00;101155.31;5088090;28;20032;-67
2022/10/22 09:48:50;;;;;;;10.82;1.80;;;;;;;16.71;100.00;101156.19;5078882;28;20074;-68
2022/10/22 09:51:22;;;;;;;12.00;1.95;;;;;;;16.73;100.00;101157.09;5092572;28;20557;-68
2022/10/22 09:54:00;;;;;;;9.80;1.77;;;;;;;16.75;100.00;101162.41;5094648;28;20026;-68
2022/10/22 09:56:27;;;;;;;17.88;4.10;;;;;;;16.82;100.00;101158.81;5094585;28;20521;-67
2022/10/22 09:58:56;;;;;;;13.20;3.20;;;;;;;16.94;100.00;101161.47;5094278;28;20111;-68
2022/10/22 10:01:27;;;;;;;12.88;2.28;;;;;;;17.03;100.00;101163.19;5078419;28;20543;-68
2022/10/22 10:04:00;;;;;;;15.90;3.03;;;;;;;17.12;100.00;101164.91;5081565;28;20029;-68
2022/10/22 10:06:32;;;;;;;12.85;2.75;;;;;;;17.15;100.00;101165.78;5076092;28;20103;-68
2022/10/22 10:09:01;;;;;;;13.25;2.08;;;;;;;17.31;100.00;101176.34;5085670;28;20543;-68
2022/10/22 10:11:44;;;;;;;11.10;2.83;;;;;;;17.29;100.00;101175.47;5073833;28;20035;-67
2022/10/22 10:14:33;;;;;;;8.93;1.80;;;;;;;17.30;100.00;101193.19;5074360;28;20494;-68
2022/10/22 10:17:13;;;;;;;12.57;1.67;;;;;;;17.30;100.00;101198.53;5089782;28;20359;-68
2022/10/22 10:19:53;;;;;;;11.13;1.70;;;;;;;17.21;100.00;101199.44;5094138;28;20089;-68
2022/10/22 10:22:37;;;;;;;15.57;1.80;;;;;;;17.19;100.00;101207.44;5094222;28;20161;-67
2022/10/22 10:25:14;;;;;;;9.73;1.55;;;;;;;17.43;100.00;101209.97;5092917;28;20089;-67
2022/10/22 10:27:46;;;;;;;11.40;1.52;;;;;;;17.73;100.00;101202.66;5080859;28;20506;-67
2022/10/22 10:30:19;;;;;;;8.82;1.75;;;;;;;17.96;100.00;101207.84;5081316;28;20071;-66
2022/10/22 10:32:55;;;;;;;12.18;2.10;;;;;;;18.25;100.00;101212.03;5078421;28;20036;-73
2022/10/22 10:35:27;;;;;;;8.02;1.40;;;;;;;18.40;100.00;101217.22;5083089;28;20392;-65
2022/10/22 10:38:23;;;;;;;12.15;2.03;;;;;;;18.67;100.00;101221.38;5081695;28;20418;-72
2022/10/22 10:40:55;;;;;;;12.90;1.83;;;;;;;18.51;100.00;101228.63;5085098;28;20391;-67
2022/10/22 10:43:41;;;;;;;9.13;1.40;;;;;;;18.30;100.00;101240.41;5087920;28;20052;-66
2022/10/22 10:46:28;;;;;;;10.55;2.15;;;;;;;18.38;100.00;101232.34;5080200;28;20123;-66
2022/10/22 10:49:17;;;;;;;7.53;1.40;;;;;;;18.45;100.00;101234.03;5079867;28;20027;-65
2022/10/22 10:52:04;;;;;;;10.45;1.75;;;;;;;18.53;100.00;101237.50;5083693;28;20033;-67
2022/10/22 10:54:42;;;;;;;15.20;2.40;;;;;;;18.54;100.00;101244.63;5082201;28;20029;-66
2022/10/22 10:57:32;;;;;;;13.15;2.10;;;;;;;18.70;100.00;101247.97;5073238;28;20139;-65
2022/10/22 11:00:05;;;;;;;11.65;2.38;;;;;;;18.95;96.74;101233.53;5073320;28;20032;-65
2022/10/22 11:03:01;;;;;;;7.72;1.85;;;;;;;19.46;94.13;101243.56;5073094;28;20028;-66
2022/10/22 11:05:52;;;;;;;9.68;2.25;;;;;;;19.80;90.17;101243.06;5081117;28;20028;-66
2022/10/22 11:08:25;;;;;;;17.67;2.65;;;;;;;19.48;91.63;101247.97;5077280;28;20026;-66
2022/10/22 11:11:02;;;;;;;15.25;2.88;;;;;;;19.19;93.54;101245.69;5084015;28;20027;-70
2022/10/22 11:13:30;;;;;;;8.60;1.90;;;;;;;18.56;94.22;101249.94;5093241;28;20055;-67
2022/10/22 11:16:17;;;;;;;16.73;2.33;;;;;;;18.10;98.54;101267.22;5093188;28;20034;-67
2022/10/22 11:19:05;;;;;;;12.07;2.15;;;;;;;17.71;100.00;101253.25;5093268;28;20027;-65
2022/10/22 11:22:08;;;;;;;12.10;2.25;;;;;;;17.72;100.00;101254.16;5092169;28;20020;-67
2022/10/22 11:24:46;;;;;;;14.85;1.73;;;;;;;18.08;99.14;101250.38;5092813;28;20028;-68
2022/10/22 11:27:41;;;;;;;10.27;1.90;;;;;;;18.58;95.67;101257.91;5091333;28;20372;-78